sensor_id;sensor_type;location;lat;lon;timestamp;P1;durP1;ratioP1;P2;durP2;ratioP2
68432;SDS011;55412;51.350;17.056;2022-08-21T00:00:44;12.37;;;5.40;;
68432;SDS011;55412;51.350;17.056;2022-08-21T00:03:10;9.88;;;5.75;;
68432;SDS011;55412;51.350;17.056;2022-08-21T00:05:42;9.10;;;6.20;;
68432;SDS011;55412;51.350;17.056;2022-08-21T00:08:18;10.07;;;6.72;;
68432;SDS011;55412;51.350;17.056;2022-08-21T00:10:46;10.82;;;5.93;;
68432;SDS011;55412;51.350;17.056;2022-08-21T00:13:13;9.30;;;5.93;;
68432;SDS011;55412;51.350;17.056;2022-08-21T00:15:40;10.68;;;5.82;;
68432;SDS011;55412;51.350;17.056;2022-08-21T00:18:07;10.23;;;6.03;;
68432;SDS011;55412;51.350;17.056;2022-08-21T00:20:36;7.97;;;5.55;;
68432;SDS011;55412;51.350;17.056;2022-08-21T00:23:03;9.43;;;5.53;;
68432;SDS011;55412;51.350;17.056;2022-08-21T00:25:30;10.37;;;6.17;;
68432;SDS011;55412;51.350;17.056;2022-08-21T00:27:56;10.70;;;6.75;;
68432;SDS011;55412;51.350;17.056;2022-08-21T00:30:25;8.85;;;5.90;;
68432;SDS011;55412;51.350;17.056;2022-08-21T00:32:53;10.35;;;6.53;;
68432;SDS011;55412;51.350;17.056;2022-08-21T00:35:23;10.15;;;7.32;;
68432;SDS011;55412;51.350;17.056;2022-08-21T00:37:54;8.63;;;5.27;;
68432;SDS011;55412;51.350;17.056;2022-08-21T00:40:22;9.55;;;6.38;;
68432;SDS011;55412;51.350;17.056;2022-08-21T00:43:16;9.07;;;5.63;;
68432;SDS011;55412;51.350;17.056;2022-08-21T00:45:47;9.63;;;5.80;;
68432;SDS011;55412;51.350;17.056;2022-08-21T00:48:13;9.00;;;5.47;;
68432;SDS011;55412;51.350;17.056;2022-08-21T00:50:42;10.97;;;5.80;;
68432;SDS011;55412;51.350;17.056;2022-08-21T00:53:16;9.85;;;5.80;;
68432;SDS011;55412;51.350;17.056;2022-08-21T00:55:42;9.07;;;5.97;;
68432;SDS011;55412;51.350;17.056;2022-08-21T00:58:11;8.20;;;5.35;;
68432;SDS011;55412;51.350;17.056;2022-08-21T01:00:40;8.95;;;5.10;;
68432;SDS011;55412;51.350;17.056;2022-08-21T01:03:10;9.00;;;5.47;;
68432;SDS011;55412;51.350;17.056;2022-08-21T01:05:41;9.63;;;5.10;;
68432;SDS011;55412;51.350;17.056;2022-08-21T01:08:08;7.13;;;3.97;;
68432;SDS011;55412;51.350;17.056;2022-08-21T01:10:35;8.70;;;5.10;;
68432;SDS011;55412;51.350;17.056;2022-08-21T01:13:03;7.72;;;4.97;;
68432;SDS011;55412;51.350;17.056;2022-08-21T01:15:33;8.70;;;4.53;;
68432;SDS011;55412;51.350;17.056;2022-08-21T01:18:04;8.43;;;4.60;;
68432;SDS011;55412;51.350;17.056;2022-08-21T01:20:33;8.60;;;4.95;;
68432;SDS011;55412;51.350;17.056;2022-08-21T01:23:01;8.38;;;4.90;;
68432;SDS011;55412;51.350;17.056;2022-08-21T01:25:29;9.10;;;4.78;;
68432;SDS011;55412;51.350;17.056;2022-08-21T01:27:57;9.07;;;4.57;;
68432;SDS011;55412;51.350;17.056;2022-08-21T01:30:28;7.78;;;4.95;;
68432;SDS011;55412;51.350;17.056;2022-08-21T01:32:54;7.30;;;3.95;;
68432;SDS011;55412;51.350;17.056;2022-08-21T01:35:21;8.23;;;4.10;;
68432;SDS011;55412;51.350;17.056;2022-08-21T01:37:47;10.13;;;4.03;;
68432;SDS011;55412;51.350;17.056;2022-08-21T01:40:15;7.20;;;4.17;;
68432;SDS011;55412;51.350;17.056;2022-08-21T01:42:43;7.57;;;3.50;;
68432;SDS011;55412;51.350;17.056;2022-08-21T01:45:11;7.15;;;4.30;;
68432;SDS011;55412;51.350;17.056;2022-08-21T01:47:38;7.38;;;3.78;;
68432;SDS011;55412;51.350;17.056;2022-08-21T01:50:06;6.65;;;4.07;;
68432;SDS011;55412;51.350;17.056;2022-08-21T01:52:38;9.20;;;4.07;;
68432;SDS011;55412;51.350;17.056;2022-08-21T01:55:05;6.38;;;3.47;;
68432;SDS011;55412;51.350;17.056;2022-08-21T01:57:35;6.90;;;3.95;;
68432;SDS011;55412;51.350;17.056;2022-08-21T02:00:03;7.75;;;3.55;;
68432;SDS011;55412;51.350;17.056;2022-08-21T02:02:33;9.68;;;4.88;;
68432;SDS011;55412;51.350;17.056;2022-08-21T02:04:59;11.80;;;4.70;;
68432;SDS011;55412;51.350;17.056;2022-08-21T02:07:25;6.60;;;4.25;;
68432;SDS011;55412;51.350;17.056;2022-08-21T02:09:51;7.68;;;4.32;;
68432;SDS011;55412;51.350;17.056;2022-08-21T02:12:17;7.63;;;4.57;;
68432;SDS011;55412;51.350;17.056;2022-08-21T02:14:43;7.75;;;4.38;;
68432;SDS011;55412;51.350;17.056;2022-08-21T02:17:09;8.63;;;5.23;;
68432;SDS011;55412;51.350;17.056;2022-08-21T02:19:36;6.55;;;3.90;;
68432;SDS011;55412;51.350;17.056;2022-08-21T02:22:03;7.07;;;3.65;;
68432;SDS011;55412;51.350;17.056;2022-08-21T02:24:29;6.53;;;4.20;;
68432;SDS011;55412;51.350;17.056;2022-08-21T02:26:55;7.57;;;3.85;;
68432;SDS011;55412;51.350;17.056;2022-08-21T02:29:21;6.60;;;3.73;;
68432;SDS011;55412;51.350;17.056;2022-08-21T02:31:47;6.07;;;3.83;;
68432;SDS011;55412;51.350;17.056;2022-08-21T02:34:13;5.90;;;3.28;;
68432;SDS011;55412;51.350;17.056;2022-08-21T02:36:39;5.57;;;3.35;;
68432;SDS011;55412;51.350;17.056;2022-08-21T02:39:05;5.63;;;3.10;;
68432;SDS011;55412;51.350;17.056;2022-08-21T02:41:31;7.07;;;3.67;;
68432;SDS011;55412;51.350;17.056;2022-08-21T02:43:57;6.28;;;3.45;;
68432;SDS011;55412;51.350;17.056;2022-08-21T02:46:23;6.00;;;3.17;;
68432;SDS011;55412;51.350;17.056;2022-08-21T02:48:49;12.85;;;3.72;;
68432;SDS011;55412;51.350;17.056;2022-08-21T02:51:17;6.38;;;3.60;;
68432;SDS011;55412;51.350;17.056;2022-08-21T02:53:45;6.67;;;2.80;;
68432;SDS011;55412;51.350;17.056;2022-08-21T02:56:13;8.15;;;3.20;;
68432;SDS011;55412;51.350;17.056;2022-08-21T02:58:50;5.93;;;3.30;;
68432;SDS011;55412;51.350;17.056;2022-08-21T03:01:17;6.25;;;3.20;;
68432;SDS011;55412;51.350;17.056;2022-08-21T03:03:45;7.28;;;2.85;;
68432;SDS011;55412;51.350;17.056;2022-08-21T03:06:15;6.53;;;3.03;;
68432;SDS011;55412;51.350;17.056;2022-08-21T03:08:44;5.50;;;2.95;;
68432;SDS011;55412;51.350;17.056;2022-08-21T03:11:10;5.97;;;3.25;;
68432;SDS011;55412;51.350;17.056;2022-08-21T03:13:38;4.88;;;2.60;;
68432;SDS011;55412;51.350;17.056;2022-08-21T03:16:04;6.20;;;3.40;;
68432;SDS011;55412;51.350;17.056;2022-08-21T03:18:31;5.73;;;2.80;;
68432;SDS011;55412;51.350;17.056;2022-08-21T03:20:58;5.80;;;3.20;;
68432;SDS011;55412;51.350;17.056;2022-08-21T03:23:24;6.00;;;2.80;;
68432;SDS011;55412;51.350;17.056;2022-08-21T03:25:50;6.10;;;3.38;;
68432;SDS011;55412;51.350;17.056;2022-08-21T03:28:17;9.30;;;4.13;;
68432;SDS011;55412;51.350;17.056;2022-08-21T03:30:47;5.67;;;2.77;;
68432;SDS011;55412;51.350;17.056;2022-08-21T03:33:16;5.50;;;3.22;;
68432;SDS011;55412;51.350;17.056;2022-08-21T03:35:43;5.03;;;2.70;;
68432;SDS011;55412;51.350;17.056;2022-08-21T03:38:13;5.38;;;3.20;;
68432;SDS011;55412;51.350;17.056;2022-08-21T03:40:41;5.13;;;2.80;;
68432;SDS011;55412;51.350;17.056;2022-08-21T03:43:08;4.73;;;2.47;;
68432;SDS011;55412;51.350;17.056;2022-08-21T03:45:34;5.65;;;3.10;;
68432;SDS011;55412;51.350;17.056;2022-08-21T03:48:02;8.00;;;3.00;;
68432;SDS011;55412;51.350;17.056;2022-08-21T03:50:31;8.45;;;2.78;;
68432;SDS011;55412;51.350;17.056;2022-08-21T03:53:00;6.93;;;2.75;;
68432;SDS011;55412;51.350;17.056;2022-08-21T03:55:27;5.60;;;2.83;;
68432;SDS011;55412;51.350;17.056;2022-08-21T03:57:53;5.78;;;2.78;;
68432;SDS011;55412;51.350;17.056;2022-08-21T04:00:19;4.55;;;2.45;;
68432;SDS011;55412;51.350;17.056;2022-08-21T04:02:46;5.03;;;2.28;;
68432;SDS011;55412;51.350;17.056;2022-08-21T04:05:13;5.28;;;2.80;;
68432;SDS011;55412;51.350;17.056;2022-08-21T04:07:59;4.93;;;2.10;;
68432;SDS011;55412;51.350;17.056;2022-08-21T04:10:30;5.50;;;2.70;;
68432;SDS011;55412;51.350;17.056;2022-08-21T04:12:59;4.10;;;2.17;;
68432;SDS011;55412;51.350;17.056;2022-08-21T04:15:26;4.65;;;2.17;;
68432;SDS011;55412;51.350;17.056;2022-08-21T04:17:53;6.22;;;2.42;;
68432;SDS011;55412;51.350;17.056;2022-08-21T04:20:20;4.73;;;2.30;;
68432;SDS011;55412;51.350;17.056;2022-08-21T04:22:48;4.38;;;2.42;;
68432;SDS011;55412;51.350;17.056;2022-08-21T04:25:15;5.93;;;2.50;;
68432;SDS011;55412;51.350;17.056;2022-08-21T04:27:43;5.00;;;2.65;;
68432;SDS011;55412;51.350;17.056;2022-08-21T04:30:10;4.38;;;2.47;;
68432;SDS011;55412;51.350;17.056;2022-08-21T04:32:38;5.63;;;2.20;;
68432;SDS011;55412;51.350;17.056;2022-08-21T04:35:09;4.90;;;2.58;;
68432;SDS011;55412;51.350;17.056;2022-08-21T04:37:37;4.97;;;2.50;;
68432;SDS011;55412;51.350;17.056;2022-08-21T04:40:03;5.55;;;2.22;;
68432;SDS011;55412;51.350;17.056;2022-08-21T04:42:31;4.55;;;2.28;;
68432;SDS011;55412;51.350;17.056;2022-08-21T04:44:58;4.47;;;1.97;;
68432;SDS011;55412;51.350;17.056;2022-08-21T04:47:25;4.78;;;2.30;;
68432;SDS011;55412;51.350;17.056;2022-08-21T04:49:51;5.00;;;2.47;;
68432;SDS011;55412;51.350;17.056;2022-08-21T04:52:19;4.82;;;2.13;;
68432;SDS011;55412;51.350;17.056;2022-08-21T04:54:47;5.18;;;2.20;;
68432;SDS011;55412;51.350;17.056;2022-08-21T04:57:16;4.90;;;2.07;;
68432;SDS011;55412;51.350;17.056;2022-08-21T04:59:44;4.38;;;1.63;;
68432;SDS011;55412;51.350;17.056;2022-08-21T05:02:14;3.83;;;1.73;;
68432;SDS011;55412;51.350;17.056;2022-08-21T05:04:45;3.85;;;1.58;;
68432;SDS011;55412;51.350;17.056;2022-08-21T05:07:18;5.78;;;1.65;;
68432;SDS011;55412;51.350;17.056;2022-08-21T05:09:48;4.93;;;1.53;;
68432;SDS011;55412;51.350;17.056;2022-08-21T05:12:15;5.80;;;1.98;;
68432;SDS011;55412;51.350;17.056;2022-08-21T05:14:41;5.70;;;1.55;;
68432;SDS011;55412;51.350;17.056;2022-08-21T05:17:08;4.03;;;1.35;;
68432;SDS011;55412;51.350;17.056;2022-08-21T05:19:35;4.43;;;1.92;;
68432;SDS011;55412;51.350;17.056;2022-08-21T05:22:01;3.80;;;1.80;;
68432;SDS011;55412;51.350;17.056;2022-08-21T05:24:28;5.05;;;1.70;;
68432;SDS011;55412;51.350;17.056;2022-08-21T05:26:54;4.07;;;1.92;;
68432;SDS011;55412;51.350;17.056;2022-08-21T05:29:20;4.20;;;1.58;;
68432;SDS011;55412;51.350;17.056;2022-08-21T05:31:47;3.10;;;1.30;;
68432;SDS011;55412;51.350;17.056;2022-08-21T05:34:14;5.77;;;1.40;;
68432;SDS011;55412;51.350;17.056;2022-08-21T05:36:47;4.88;;;1.80;;
68432;SDS011;55412;51.350;17.056;2022-08-21T05:39:13;3.50;;;1.50;;
68432;SDS011;55412;51.350;17.056;2022-08-21T05:41:40;4.80;;;1.40;;
68432;SDS011;55412;51.350;17.056;2022-08-21T05:44:06;4.20;;;1.67;;
68432;SDS011;55412;51.350;17.056;2022-08-21T05:46:33;4.00;;;1.50;;
68432;SDS011;55412;51.350;17.056;2022-08-21T05:48:59;4.85;;;1.60;;
68432;SDS011;55412;51.350;17.056;2022-08-21T05:51:25;3.13;;;1.15;;
68432;SDS011;55412;51.350;17.056;2022-08-21T05:53:51;3.20;;;1.42;;
68432;SDS011;55412;51.350;17.056;2022-08-21T05:56:17;4.10;;;1.33;;
68432;SDS011;55412;51.350;17.056;2022-08-21T05:58:43;3.40;;;1.30;;
68432;SDS011;55412;51.350;17.056;2022-08-21T06:01:09;3.33;;;1.23;;
68432;SDS011;55412;51.350;17.056;2022-08-21T06:03:37;3.88;;;1.40;;
68432;SDS011;55412;51.350;17.056;2022-08-21T06:06:06;3.42;;;1.30;;
68432;SDS011;55412;51.350;17.056;2022-08-21T06:08:32;3.58;;;1.55;;
68432;SDS011;55412;51.350;17.056;2022-08-21T06:10:59;5.60;;;1.40;;
68432;SDS011;55412;51.350;17.056;2022-08-21T06:13:27;4.68;;;1.10;;
68432;SDS011;55412;51.350;17.056;2022-08-21T06:16:01;3.95;;;1.60;;
68432;SDS011;55412;51.350;17.056;2022-08-21T06:18:31;4.00;;;1.40;;
68432;SDS011;55412;51.350;17.056;2022-08-21T06:20:58;3.42;;;1.55;;
68432;SDS011;55412;51.350;17.056;2022-08-21T06:23:24;3.20;;;1.40;;
68432;SDS011;55412;51.350;17.056;2022-08-21T06:25:50;3.58;;;1.42;;
68432;SDS011;55412;51.350;17.056;2022-08-21T06:28:16;4.20;;;1.60;;
68432;SDS011;55412;51.350;17.056;2022-08-21T06:30:42;4.70;;;1.45;;
68432;SDS011;55412;51.350;17.056;2022-08-21T06:33:08;3.83;;;1.80;;
68432;SDS011;55412;51.350;17.056;2022-08-21T06:35:36;4.77;;;1.63;;
68432;SDS011;55412;51.350;17.056;2022-08-21T06:38:02;5.50;;;1.70;;
68432;SDS011;55412;51.350;17.056;2022-08-21T06:40:29;5.90;;;1.88;;
68432;SDS011;55412;51.350;17.056;2022-08-21T06:42:56;5.03;;;1.70;;
68432;SDS011;55412;51.350;17.056;2022-08-21T06:45:23;4.18;;;1.48;;
68432;SDS011;55412;51.350;17.056;2022-08-21T06:47:50;4.50;;;1.30;;
68432;SDS011;55412;51.350;17.056;2022-08-21T06:50:16;4.93;;;1.77;;
68432;SDS011;55412;51.350;17.056;2022-08-21T06:52:42;5.57;;;1.63;;
68432;SDS011;55412;51.350;17.056;2022-08-21T06:55:08;4.53;;;1.70;;
68432;SDS011;55412;51.350;17.056;2022-08-21T06:57:35;5.00;;;2.28;;
68432;SDS011;55412;51.350;17.056;2022-08-21T07:00:03;4.97;;;1.93;;
68432;SDS011;55412;51.350;17.056;2022-08-21T07:02:31;6.72;;;1.88;;
68432;SDS011;55412;51.350;17.056;2022-08-21T07:04:58;6.43;;;2.15;;
68432;SDS011;55412;51.350;17.056;2022-08-21T07:07:25;4.97;;;2.30;;
68432;SDS011;55412;51.350;17.056;2022-08-21T07:09:51;5.70;;;2.00;;
68432;SDS011;55412;51.350;17.056;2022-08-21T07:12:17;4.50;;;2.20;;
68432;SDS011;55412;51.350;17.056;2022-08-21T07:14:44;6.28;;;2.40;;
68432;SDS011;55412;51.350;17.056;2022-08-21T07:17:10;6.93;;;2.75;;
68432;SDS011;55412;51.350;17.056;2022-08-21T07:19:36;6.70;;;2.75;;
68432;SDS011;55412;51.350;17.056;2022-08-21T07:22:02;8.18;;;2.72;;
68432;SDS011;55412;51.350;17.056;2022-08-21T07:24:28;5.80;;;2.30;;
68432;SDS011;55412;51.350;17.056;2022-08-21T07:26:55;5.85;;;2.20;;
68432;SDS011;55412;51.350;17.056;2022-08-21T07:29:21;4.93;;;2.05;;
68432;SDS011;55412;51.350;17.056;2022-08-21T07:31:47;6.88;;;1.40;;
68432;SDS011;55412;51.350;17.056;2022-08-21T07:34:13;7.25;;;1.73;;
68432;SDS011;55412;51.350;17.056;2022-08-21T07:36:39;6.33;;;1.70;;
68432;SDS011;55412;51.350;17.056;2022-08-21T07:39:06;5.68;;;1.50;;
68432;SDS011;55412;51.350;17.056;2022-08-21T07:41:33;5.85;;;1.73;;
68432;SDS011;55412;51.350;17.056;2022-08-21T07:44:00;5.28;;;1.80;;
68432;SDS011;55412;51.350;17.056;2022-08-21T07:46:27;5.20;;;1.60;;
68432;SDS011;55412;51.350;17.056;2022-08-21T07:48:53;6.20;;;1.60;;
68432;SDS011;55412;51.350;17.056;2022-08-21T07:51:20;6.03;;;1.52;;
68432;SDS011;55412;51.350;17.056;2022-08-21T07:53:52;6.65;;;2.00;;
68432;SDS011;55412;51.350;17.056;2022-08-21T07:56:20;6.05;;;1.75;;
68432;SDS011;55412;51.350;17.056;2022-08-21T07:58:47;4.45;;;1.45;;
68432;SDS011;55412;51.350;17.056;2022-08-21T08:01:13;5.80;;;1.93;;
68432;SDS011;55412;51.350;17.056;2022-08-21T08:03:39;6.10;;;2.10;;
68432;SDS011;55412;51.350;17.056;2022-08-21T08:06:06;7.35;;;1.95;;
68432;SDS011;55412;51.350;17.056;2022-08-21T08:08:37;6.93;;;1.60;;
68432;SDS011;55412;51.350;17.056;2022-08-21T08:11:05;6.13;;;1.50;;
68432;SDS011;55412;51.350;17.056;2022-08-21T08:13:43;4.10;;;1.50;;
68432;SDS011;55412;51.350;17.056;2022-08-21T08:16:12;5.38;;;1.80;;
68432;SDS011;55412;51.350;17.056;2022-08-21T08:18:39;7.53;;;2.28;;
68432;SDS011;55412;51.350;17.056;2022-08-21T08:21:07;5.40;;;1.60;;
68432;SDS011;55412;51.350;17.056;2022-08-21T08:23:35;5.05;;;1.55;;
68432;SDS011;55412;51.350;17.056;2022-08-21T08:26:01;4.20;;;1.30;;
68432;SDS011;55412;51.350;17.056;2022-08-21T08:28:28;4.82;;;1.42;;
68432;SDS011;55412;51.350;17.056;2022-08-21T08:30:56;9.65;;;2.83;;
68432;SDS011;55412;51.350;17.056;2022-08-21T08:33:23;6.53;;;2.38;;
68432;SDS011;55412;51.350;17.056;2022-08-21T08:35:50;8.25;;;2.80;;
68432;SDS011;55412;51.350;17.056;2022-08-21T08:38:17;9.87;;;2.30;;
68432;SDS011;55412;51.350;17.056;2022-08-21T08:43:45;6.45;;;2.10;;
68432;SDS011;55412;51.350;17.056;2022-08-21T08:46:29;7.78;;;1.50;;
68432;SDS011;55412;51.350;17.056;2022-08-21T08:49:04;7.75;;;1.67;;
68432;SDS011;55412;51.350;17.056;2022-08-21T08:54:32;4.75;;;1.50;;
68432;SDS011;55412;51.350;17.056;2022-08-21T08:57:20;8.27;;;2.35;;
68432;SDS011;55412;51.350;17.056;2022-08-21T08:59:56;4.38;;;1.42;;
68432;SDS011;55412;51.350;17.056;2022-08-21T09:02:27;11.60;;;2.08;;
68432;SDS011;55412;51.350;17.056;2022-08-21T09:04:54;15.07;;;4.10;;
68432;SDS011;55412;51.350;17.056;2022-08-21T09:07:35;26.75;;;6.97;;
68432;SDS011;55412;51.350;17.056;2022-08-21T09:10:35;7.60;;;1.90;;
68432;SDS011;55412;51.350;17.056;2022-08-21T09:27:45;3.38;;;0.80;;
68432;SDS011;55412;51.350;17.056;2022-08-21T09:30:12;4.20;;;0.82;;
68432;SDS011;55412;51.350;17.056;2022-08-21T09:32:38;3.30;;;1.00;;
68432;SDS011;55412;51.350;17.056;2022-08-21T09:35:08;4.78;;;1.10;;
68432;SDS011;55412;51.350;17.056;2022-08-21T09:37:46;3.92;;;0.90;;
68432;SDS011;55412;51.350;17.056;2022-08-21T09:45:40;3.87;;;0.90;;
68432;SDS011;55412;51.350;17.056;2022-08-21T09:48:17;4.25;;;1.05;;
68432;SDS011;55412;51.350;17.056;2022-08-21T09:50:47;2.83;;;0.90;;
68432;SDS011;55412;51.350;17.056;2022-08-21T09:53:25;3.70;;;0.90;;
68432;SDS011;55412;51.350;17.056;2022-08-21T09:55:56;3.72;;;1.17;;
68432;SDS011;55412;51.350;17.056;2022-08-21T09:59:11;3.80;;;1.03;;
68432;SDS011;55412;51.350;17.056;2022-08-21T10:01:44;3.90;;;1.25;;
68432;SDS011;55412;51.350;17.056;2022-08-21T10:04:15;6.35;;;1.10;;
68432;SDS011;55412;51.350;17.056;2022-08-21T10:06:52;5.30;;;1.02;;
68432;SDS011;55412;51.350;17.056;2022-08-21T10:09:19;4.28;;;1.10;;
68432;SDS011;55412;51.350;17.056;2022-08-21T10:11:51;4.03;;;0.90;;
68432;SDS011;55412;51.350;17.056;2022-08-21T10:15:03;4.28;;;1.25;;
68432;SDS011;55412;51.350;17.056;2022-08-21T10:17:43;7.20;;;1.92;;
68432;SDS011;55412;51.350;17.056;2022-08-21T10:20:22;3.60;;;1.20;;
68432;SDS011;55412;51.350;17.056;2022-08-21T10:29:25;5.07;;;1.60;;
68432;SDS011;55412;51.350;17.056;2022-08-21T10:34:49;4.10;;;0.88;;
68432;SDS011;55412;51.350;17.056;2022-08-21T10:37:49;4.68;;;1.30;;
68432;SDS011;55412;51.350;17.056;2022-08-21T10:41:13;3.77;;;1.07;;
68432;SDS011;55412;51.350;17.056;2022-08-21T10:46:50;4.25;;;1.05;;
68432;SDS011;55412;51.350;17.056;2022-08-21T10:55:10;4.47;;;1.57;;
68432;SDS011;55412;51.350;17.056;2022-08-21T10:57:57;5.47;;;1.58;;
68432;SDS011;55412;51.350;17.056;2022-08-21T11:06:00;4.35;;;1.58;;
68432;SDS011;55412;51.350;17.056;2022-08-21T11:08:48;4.80;;;1.20;;
68432;SDS011;55412;51.350;17.056;2022-08-21T11:11:24;6.75;;;1.63;;
68432;SDS011;55412;51.350;17.056;2022-08-21T11:16:59;5.68;;;1.75;;
68432;SDS011;55412;51.350;17.056;2022-08-21T11:19:54;6.22;;;1.90;;
68432;SDS011;55412;51.350;17.056;2022-08-21T11:25:36;7.18;;;1.70;;
68432;SDS011;55412;51.350;17.056;2022-08-21T11:28:10;5.75;;;2.05;;
68432;SDS011;55412;51.350;17.056;2022-08-21T11:30:47;8.13;;;1.92;;
68432;SDS011;55412;51.350;17.056;2022-08-21T11:38:01;6.17;;;1.90;;
68432;SDS011;55412;51.350;17.056;2022-08-21T11:40:06;6.57;;;2.00;;
68432;SDS011;55412;51.350;17.056;2022-08-21T11:42:56;5.30;;;1.92;;
68432;SDS011;55412;51.350;17.056;2022-08-21T11:45:43;3.95;;;1.63;;
68432;SDS011;55412;51.350;17.056;2022-08-21T11:51:25;4.67;;;1.73;;
68432;SDS011;55412;51.350;17.056;2022-08-21T11:54:28;4.95;;;2.10;;
68432;SDS011;55412;51.350;17.056;2022-08-21T11:57:31;6.05;;;2.05;;
68432;SDS011;55412;51.350;17.056;2022-08-21T12:00:28;4.78;;;1.80;;
68432;SDS011;55412;51.350;17.056;2022-08-21T12:05:56;4.33;;;1.30;;
68432;SDS011;55412;51.350;17.056;2022-08-21T12:08:32;4.88;;;1.38;;
68432;SDS011;55412;51.350;17.056;2022-08-21T12:13:57;6.00;;;1.92;;
68432;SDS011;55412;51.350;17.056;2022-08-21T12:16:34;8.38;;;2.20;;
68432;SDS011;55412;51.350;17.056;2022-08-21T12:19:14;5.50;;;2.00;;
68432;SDS011;55412;51.350;17.056;2022-08-21T12:30:02;5.65;;;2.35;;
68432;SDS011;55412;51.350;17.056;2022-08-21T12:32:44;6.57;;;2.00;;
68432;SDS011;55412;51.350;17.056;2022-08-21T12:35:39;6.18;;;1.92;;
68432;SDS011;55412;51.350;17.056;2022-08-21T12:38:15;6.68;;;2.22;;
68432;SDS011;55412;51.350;17.056;2022-08-21T12:40:52;5.68;;;1.80;;
68432;SDS011;55412;51.350;17.056;2022-08-21T12:43:29;8.65;;;2.22;;
68432;SDS011;55412;51.350;17.056;2022-08-21T12:46:00;6.10;;;2.10;;
68432;SDS011;55412;51.350;17.056;2022-08-21T12:48:39;4.25;;;1.88;;
68432;SDS011;55412;51.350;17.056;2022-08-21T12:51:14;5.60;;;2.58;;
68432;SDS011;55412;51.350;17.056;2022-08-21T12:56:15;5.85;;;2.10;;
68432;SDS011;55412;51.350;17.056;2022-08-21T12:58:47;5.73;;;2.17;;
68432;SDS011;55412;51.350;17.056;2022-08-21T13:01:27;7.75;;;2.13;;
68432;SDS011;55412;51.350;17.056;2022-08-21T13:04:02;6.28;;;2.20;;
68432;SDS011;55412;51.350;17.056;2022-08-21T13:06:44;5.45;;;2.10;;
68432;SDS011;55412;51.350;17.056;2022-08-21T13:09:18;5.57;;;2.47;;
68432;SDS011;55412;51.350;17.056;2022-08-21T13:11:51;8.00;;;2.17;;
68432;SDS011;55412;51.350;17.056;2022-08-21T13:17:05;5.28;;;2.40;;
68432;SDS011;55412;51.350;17.056;2022-08-21T13:19:32;6.07;;;2.30;;
68432;SDS011;55412;51.350;17.056;2022-08-21T13:21:59;4.85;;;2.20;;
68432;SDS011;55412;51.350;17.056;2022-08-21T13:24:33;6.90;;;2.70;;
68432;SDS011;55412;51.350;17.056;2022-08-21T13:27:01;6.88;;;2.85;;
68432;SDS011;55412;51.350;17.056;2022-08-21T13:29:29;5.63;;;2.22;;
68432;SDS011;55412;51.350;17.056;2022-08-21T13:32:02;5.53;;;2.42;;
68432;SDS011;55412;51.350;17.056;2022-08-21T13:34:35;7.13;;;2.92;;
68432;SDS011;55412;51.350;17.056;2022-08-21T13:37:04;6.23;;;2.40;;
68432;SDS011;55412;51.350;17.056;2022-08-21T13:39:34;5.30;;;2.20;;
68432;SDS011;55412;51.350;17.056;2022-08-21T13:42:02;5.20;;;2.63;;
68432;SDS011;55412;51.350;17.056;2022-08-21T13:44:35;6.68;;;2.03;;
68432;SDS011;55412;51.350;17.056;2022-08-21T13:47:09;4.50;;;2.00;;
68432;SDS011;55412;51.350;17.056;2022-08-21T13:49:39;6.57;;;2.67;;
68432;SDS011;55412;51.350;17.056;2022-08-21T13:52:44;8.68;;;2.40;;
68432;SDS011;55412;51.350;17.056;2022-08-21T13:55:13;5.00;;;2.00;;
68432;SDS011;55412;51.350;17.056;2022-08-21T13:57:42;6.05;;;2.60;;
68432;SDS011;55412;51.350;17.056;2022-08-21T14:00:09;5.20;;;2.33;;
68432;SDS011;55412;51.350;17.056;2022-08-21T14:02:51;6.50;;;3.00;;
68432;SDS011;55412;51.350;17.056;2022-08-21T14:05:21;6.10;;;2.60;;
68432;SDS011;55412;51.350;17.056;2022-08-21T14:07:55;8.00;;;2.70;;
68432;SDS011;55412;51.350;17.056;2022-08-21T14:10:52;5.75;;;2.15;;
68432;SDS011;55412;51.350;17.056;2022-08-21T14:13:26;6.57;;;2.85;;
68432;SDS011;55412;51.350;17.056;2022-08-21T14:16:23;5.27;;;2.23;;
68432;SDS011;55412;51.350;17.056;2022-08-21T14:19:26;5.90;;;2.67;;
68432;SDS011;55412;51.350;17.056;2022-08-21T14:25:04;6.60;;;2.42;;
68432;SDS011;55412;51.350;17.056;2022-08-21T14:27:54;5.45;;;2.80;;
68432;SDS011;55412;51.350;17.056;2022-08-21T14:30:29;6.63;;;2.43;;
68432;SDS011;55412;51.350;17.056;2022-08-21T14:33:02;6.03;;;2.58;;
68432;SDS011;55412;51.350;17.056;2022-08-21T14:35:32;6.97;;;2.80;;
68432;SDS011;55412;51.350;17.056;2022-08-21T14:37:58;5.60;;;2.30;;
68432;SDS011;55412;51.350;17.056;2022-08-21T14:40:25;21.45;;;3.13;;
68432;SDS011;55412;51.350;17.056;2022-08-21T14:42:51;4.90;;;2.20;;
68432;SDS011;55412;51.350;17.056;2022-08-21T14:45:20;7.75;;;2.53;;
68432;SDS011;55412;51.350;17.056;2022-08-21T14:47:54;5.63;;;2.85;;
68432;SDS011;55412;51.350;17.056;2022-08-21T14:50:21;5.05;;;2.65;;
68432;SDS011;55412;51.350;17.056;2022-08-21T14:52:48;7.25;;;3.00;;
68432;SDS011;55412;51.350;17.056;2022-08-21T14:55:15;7.87;;;2.83;;
68432;SDS011;55412;51.350;17.056;2022-08-21T14:57:44;6.13;;;2.63;;
68432;SDS011;55412;51.350;17.056;2022-08-21T15:00:17;6.40;;;3.33;;
68432;SDS011;55412;51.350;17.056;2022-08-21T15:02:47;6.47;;;2.85;;
68432;SDS011;55412;51.350;17.056;2022-08-21T15:05:15;6.88;;;3.22;;
68432;SDS011;55412;51.350;17.056;2022-08-21T15:07:43;6.27;;;2.90;;
68432;SDS011;55412;51.350;17.056;2022-08-21T15:10:09;5.78;;;3.38;;
68432;SDS011;55412;51.350;17.056;2022-08-21T15:12:36;7.72;;;3.42;;
68432;SDS011;55412;51.350;17.056;2022-08-21T15:15:06;7.07;;;3.40;;
68432;SDS011;55412;51.350;17.056;2022-08-21T15:17:35;5.53;;;3.17;;
68432;SDS011;55412;51.350;17.056;2022-08-21T15:20:01;6.53;;;2.80;;
68432;SDS011;55412;51.350;17.056;2022-08-21T15:22:29;7.30;;;2.85;;
68432;SDS011;55412;51.350;17.056;2022-08-21T15:24:55;6.40;;;2.90;;
68432;SDS011;55412;51.350;17.056;2022-08-21T15:27:21;5.82;;;2.92;;
68432;SDS011;55412;51.350;17.056;2022-08-21T15:29:47;6.97;;;3.50;;
68432;SDS011;55412;51.350;17.056;2022-08-21T15:32:18;6.00;;;2.87;;
68432;SDS011;55412;51.350;17.056;2022-08-21T15:34:51;6.50;;;2.70;;
68432;SDS011;55412;51.350;17.056;2022-08-21T15:37:19;7.60;;;3.13;;
68432;SDS011;55412;51.350;17.056;2022-08-21T15:39:46;5.40;;;3.00;;
68432;SDS011;55412;51.350;17.056;2022-08-21T15:42:12;6.82;;;2.72;;
68432;SDS011;55412;51.350;17.056;2022-08-21T15:44:39;5.43;;;3.13;;
68432;SDS011;55412;51.350;17.056;2022-08-21T15:47:07;6.88;;;3.72;;
68432;SDS011;55412;51.350;17.056;2022-08-21T15:49:39;9.45;;;3.08;;
68432;SDS011;55412;51.350;17.056;2022-08-21T15:52:10;6.13;;;2.80;;
68432;SDS011;55412;51.350;17.056;2022-08-21T15:54:42;6.00;;;2.90;;
68432;SDS011;55412;51.350;17.056;2022-08-21T15:57:12;7.23;;;3.43;;
68432;SDS011;55412;51.350;17.056;2022-08-21T15:59:43;7.68;;;3.10;;
68432;SDS011;55412;51.350;17.056;2022-08-21T16:02:15;7.30;;;2.72;;
68432;SDS011;55412;51.350;17.056;2022-08-21T16:05:03;9.68;;;2.65;;
68432;SDS011;55412;51.350;17.056;2022-08-21T16:07:31;4.72;;;2.58;;
68432;SDS011;55412;51.350;17.056;2022-08-21T16:09:57;5.43;;;2.40;;
68432;SDS011;55412;51.350;17.056;2022-08-21T16:12:26;5.18;;;2.13;;
68432;SDS011;55412;51.350;17.056;2022-08-21T16:14:57;5.55;;;2.65;;
68432;SDS011;55412;51.350;17.056;2022-08-21T16:17:27;5.22;;;2.20;;
68432;SDS011;55412;51.350;17.056;2022-08-21T16:19:56;5.07;;;2.20;;